Погода Салена 2 недели

Сале, Марокко

19 июня-02 июля
  • 19июня
    Сегодня
    +16°
    +23°
    Практически безоблачно
    ВремяПогодаТемператураВлажностьДавлениеВетер, м/сВероятность осадков
    01:00Практически безоблачно+20°C88 %759 мм1.9 м/с7 %
    04:00Небольшая облачность+18°C89 %758 мм1.8 м/с15 %
    07:00Пасмурно, небольшой дождь+19°C82 %759 мм2.1 м/с35 %
    10:00Небольшая облачность+21°C67 %760 мм3.3 м/с38 %
    13:00Практически безоблачно+23°C55 %760 мм4.8 м/с12 %
    16:00Ясно и безоблачно+22°C62 %760 мм5.7 м/с3 %
    19:00Ясно и безоблачно+22°C69 %760 мм4.9 м/с2 %
    22:00Практически безоблачно+20°C72 %761 мм3.1 м/с2 %
  • 20июня
    Четверг
    +14°
    +23°
    Практически безоблачно
    ВремяПогодаТемператураВлажностьДавлениеВетер, м/сВероятность осадков
    01:00Практически безоблачно+18°C77 %760 мм1.6 м/с3 %
    04:00Практически безоблачно+18°C79 %760 мм0.9 м/с10 %
    07:00Небольшая облачность+17°C89 %760 мм0.6 м/с10 %
    10:00Практически безоблачно+20°C72 %761 мм2.6 м/с18 %
    13:00Практически безоблачно+23°C62 %761 мм4.3 м/с8 %
    16:00Ясно и безоблачно+22°C55 %760 мм5.3 м/с2 %
    19:00Ясно и безоблачно+21°C64 %760 мм5.1 м/с2 %
    22:00Практически безоблачно+19°C75 %761 мм3.2 м/с2 %
  • 21июня
    Пятница
    +14°
    +24°
    Ясно и безоблачно
    ВремяПогодаТемператураВлажностьДавлениеВетер, м/сВероятность осадков
    01:00Практически безоблачно+17°C82 %761 мм1.6 м/с2 %
    04:00Практически безоблачно+15°C88 %760 мм1.2 м/с2 %
    07:00Ясно и безоблачно+15°C92 %760 мм1.2 м/с2 %
    10:00Ясно и безоблачно+21°C63 %760 мм2.8 м/с2 %
    13:00Ясно и безоблачно+23°C63 %760 мм4.6 м/с2 %
    16:00Ясно и безоблачно+24°C67 %758 мм5.7 м/с2 %
    19:00Ясно и безоблачно+22°C77 %758 мм4.7 м/с2 %
    22:00Ясно и безоблачно+20°C87 %759 мм1.9 м/с2 %
  • 22июня
    Суббота
    +16°
    +26°
    Практически безоблачно
    ВремяПогодаТемператураВлажностьДавлениеВетер, м/сВероятность осадков
    01:00Облачно с прояснениями+19°C85 %759 мм0.7 м/с2 %
    04:00Облачно с прояснениями+16°C92 %757 мм0.6 м/с2 %
    07:00Небольшая облачность+16°C92 %757 мм1.1 м/с2 %
    10:00Небольшая облачность+23°C64 %758 мм1.5 м/с2 %
    13:00Практически безоблачно+26°C64 %757 мм3.9 м/с2 %
    16:00Ясно и безоблачно+25°C61 %756 мм4.7 м/с2 %
    19:00Ясно и безоблачно+24°C71 %754 мм2.9 м/с2 %
    22:00Ясно и безоблачно+21°C82 %755 мм1.9 м/с2 %
  • 23июня
    Воскресенье
    +17°
    +27°
    Ясно и безоблачно
    ВремяПогодаТемператураВлажностьДавлениеВетер, м/сВероятность осадков
    01:00Ясно и безоблачно+19°C86 %754 мм1.8 м/с2 %
    04:00Ясно и безоблачно+18°C85 %753 мм1.5 м/с2 %
    07:00Ясно и безоблачно+18°C85 %753 мм1.0 м/с2 %
    10:00Ясно и безоблачно+25°C57 %754 мм1.8 м/с2 %
    13:00Ясно и безоблачно+27°C57 %753 мм3.9 м/с2 %
    16:00Ясно и безоблачно+27°C59 %752 мм4.2 м/с2 %
    19:00Ясно и безоблачно+25°C70 %751 мм2.6 м/с2 %
    22:00Ясно и безоблачно+22°C82 %752 мм3.0 м/с2 %
Мы используем cookies
Соглашаюсь